Time;durP1;ratioP1;P1;durP2;ratioP2;P2;SDS_P1;SDS_P2;PMS_P1;PMS_P2;Temp;Humidity;BMP_temperature;BMP_pressure;BME280_temperature;BME280_humidity;BME280_pressure;Samples;Min_cycle;Max_cycle;Signal;HPM_P1;HPM_P2
2021/04/13 00:01:11;;;;;;;2.80;2.15;;;0.50;99.90;;;;;;5072744;28;20038;-63
2021/04/13 00:03:44;;;;;;;4.75;2.30;;;0.50;99.90;;;;;;5082407;28;20143;-62
2021/04/13 00:06:12;;;;;;;3.85;2.88;;;0.40;99.90;;;;;;5091530;28;20032;-62
2021/04/13 00:08:39;;;;;;;4.65;2.70;;;0.40;99.90;;;;;;5088149;28;20037;-62
2021/04/13 00:11:08;;;;;;;3.65;2.50;;;0.30;99.90;;;;;;5090594;28;20032;-63
2021/04/13 00:13:34;;;;;;;4.93;2.80;;;0.30;99.90;;;;;;5089341;28;20050;-61
2021/04/13 00:16:23;;;;;;;4.97;2.83;;;0.20;99.90;;;;;;5089423;28;20123;-63
2021/04/13 00:18:51;;;;;;;6.18;3.30;;;0.20;99.90;;;;;;5088113;28;20032;-61
2021/04/13 00:21:36;;;;;;;4.30;3.13;;;0.20;99.90;;;;;;5089362;28;20035;-63
2021/04/13 00:24:06;;;;;;;5.22;3.25;;;0.20;99.90;;;;;;5088896;28;20031;-62
2021/04/13 00:26:32;;;;;;;4.85;3.38;;;0.30;99.90;;;;;;5088799;28;20028;-62
2021/04/13 00:29:01;;;;;;;4.90;3.00;;;0.30;99.90;;;;;;5089202;28;20097;-64
2021/04/13 00:31:42;;;;;;;4.53;3.17;;;0.30;99.90;;;;;;5087897;28;20035;-64
2021/04/13 00:34:14;;;;;;;5.72;3.60;;;0.20;99.90;;;;;;5088012;28;20515;-61
2021/04/13 00:36:41;;;;;;;7.30;4.32;;;0.20;99.90;;;;;;5075070;28;20028;-64
2021/04/13 00:39:27;;;;;;;7.68;4.68;;;0.20;99.90;;;;;;5089722;28;20077;-63
2021/04/13 00:42:05;;;;;;;8.27;4.72;;;0.20;99.90;;;;;;5089473;28;20547;-64
2021/04/13 00:44:42;;;;;;;8.32;4.80;;;0.20;99.90;;;;;;5088279;28;20054;-63
2021/04/13 00:47:17;;;;;;;6.65;4.57;;;0.30;99.90;;;;;;5087816;28;20041;-63
2021/04/13 00:49:48;;;;;;;5.55;4.10;;;0.30;99.90;;;;;;5087762;28;20035;-64
2021/04/13 00:52:19;;;;;;;8.25;4.43;;;0.40;99.90;;;;;;5089503;28;20485;-64
2021/04/13 00:54:56;;;;;;;10.07;5.03;;;0.40;99.90;;;;;;5086496;28;20032;-64
2021/04/13 00:57:23;;;;;;;9.65;4.22;;;0.50;99.90;;;;;;5086552;28;20028;-65
2021/04/13 00:59:50;;;;;;;6.18;4.20;;;0.50;99.90;;;;;;5089421;28;20089;-63
2021/04/13 01:02:22;;;;;;;9.13;4.50;;;0.50;99.90;;;;;;5089650;28;20051;-61
2021/04/13 01:05:09;;;;;;;10.65;4.70;;;0.60;99.90;;;;;;5092988;28;20419;-62
2021/04/13 01:07:46;;;;;;;7.40;4.72;;;0.60;99.90;;;;;;5091706;28;20089;-62
2021/04/13 01:10:16;;;;;;;7.13;4.28;;;0.60;99.90;;;;;;5092789;28;20027;-63
2021/04/13 01:13:02;;;;;;;9.70;4.72;;;0.60;99.90;;;;;;5089354;28;20054;-64
2021/04/13 01:15:28;;;;;;;7.55;4.75;;;0.50;99.90;;;;;;5091418;28;20024;-61
2021/04/13 01:17:54;;;;;;;5.53;4.50;;;0.60;99.90;;;;;;5092553;28;20032;-63
2021/04/13 01:20:46;;;;;;;9.57;4.78;;;0.60;99.90;;;;;;5092578;28;20020;-66
2021/04/13 01:23:30;;;;;;;7.18;5.05;;;0.50;99.90;;;;;;5091669;28;20389;-61
2021/04/13 01:26:00;;;;;;;8.95;4.90;;;0.50;99.90;;;;;;5091731;28;20039;-64
2021/04/13 01:28:31;;;;;;;11.52;5.53;;;0.50;99.90;;;;;;5092096;28;20025;-65
2021/04/13 01:31:08;;;;;;;7.88;5.45;;;0.50;99.90;;;;;;5092107;28;20040;-61
2021/04/13 01:33:48;;;;;;;9.85;5.95;;;0.50;99.90;;;;;;5091476;28;20031;-64
2021/04/13 01:36:18;;;;;;;9.02;5.82;;;0.50;99.90;;;;;;5091637;28;20031;-64
2021/04/13 01:38:56;;;;;;;;;;;0.50;99.90;;;;;;5089864;28;20375;-64
2021/04/13 01:41:30;;;;;;;10.45;5.72;;;0.40;99.90;;;;;;5091574;28;19919;-66
2021/04/13 01:43:56;;;;;;;8.18;6.25;;;0.40;99.90;;;;;;5092236;28;20109;-65
2021/04/13 01:46:23;;;;;;;11.38;6.57;;;0.30;99.90;;;;;;5091261;28;20344;-66
2021/04/13 01:48:49;;;;;;;9.88;6.07;;;0.30;99.90;;;;;;5092564;28;20028;-64
2021/04/13 01:51:15;;;;;;;10.80;6.43;;;0.20;99.90;;;;;;5093157;28;20035;-64
2021/04/13 01:53:44;;;;;;;9.32;6.60;;;0.10;99.90;;;;;;5074490;28;20027;-64
2021/04/13 01:57:05;;;;;;;11.02;7.60;;;0.10;99.90;;;;;;5092672;28;20027;-64
2021/04/13 01:59:30;;;;;;;;;;;0.00;99.90;;;;;;5030238;28;20165;-63
2021/04/13 02:01:58;;;;;;;17.98;8.88;;;0.00;99.90;;;;;;5030106;28;20017;-64
2021/04/13 02:04:31;;;;;;;13.82;9.18;;;0.00;99.90;;;;;;5030128;28;20091;-63
2021/04/13 02:06:58;;;;;;;15.27;9.93;;;-0.10;99.90;;;;;;5030488;28;20033;-62
2021/04/13 02:09:36;;;;;;;13.40;9.15;;;0.00;99.90;;;;;;5029861;28;20038;-64
2021/04/13 02:12:21;;;;;;;15.88;11.00;;;-0.10;99.90;;;;;;5030384;28;20061;-61
2021/04/13 02:15:00;;;;;;;17.98;11.40;;;-0.10;99.90;;;;;;5028709;28;20036;-63
2021/04/13 02:17:42;;;;;;;18.27;11.45;;;-0.10;99.90;;;;;;5029327;28;20073;-64
2021/04/13 02:20:11;;;;;;;14.77;10.20;;;-0.10;99.90;;;;;;5030344;28;20391;-62
2021/04/13 02:22:46;;;;;;;20.20;12.15;;;-0.20;99.90;;;;;;5029235;28;20051;-63
2021/04/13 02:25:15;;;;;;;18.98;12.57;;;-0.30;99.90;;;;;;5030211;28;20030;-62
2021/04/13 02:27:42;;;;;;;18.92;12.25;;;-0.30;99.90;;;;;;5029199;28;20041;-63
2021/04/13 02:30:15;;;;;;;19.35;13.15;;;-0.30;99.90;;;;;;5053426;28;20122;-64
2021/04/13 02:32:44;;;;;;;22.90;13.35;;;-0.30;99.90;;;;;;5091841;28;20020;-62
2021/04/13 02:35:23;;;;;;;20.55;13.98;;;-0.40;99.90;;;;;;5092739;28;20032;-62
2021/04/13 02:38:01;;;;;;;23.70;13.15;;;-0.40;99.90;;;;;;5084795;28;20039;-63
2021/04/13 02:40:47;;;;;;;20.58;13.30;;;-0.40;99.90;;;;;;5091944;28;20028;-63
2021/04/13 02:43:24;;;;;;;22.23;13.55;;;-0.40;99.90;;;;;;5092493;28;20036;-62
2021/04/13 02:45:56;;;;;;;19.92;12.50;;;-0.40;99.90;;;;;;5092333;28;20034;-63
2021/04/13 02:48:40;;;;;;;19.98;12.50;;;-0.40;99.90;;;;;;5073943;28;20051;-65
2021/04/13 02:51:09;;;;;;;16.92;11.00;;;-0.40;99.90;;;;;;5092609;28;20031;-62
2021/04/13 02:53:55;;;;;;;21.60;12.35;;;-0.40;99.90;;;;;;5091172;28;20052;-61
2021/04/13 02:56:34;;;;;;;17.08;10.98;;;-0.40;99.90;;;;;;5092147;28;20472;-63
2021/04/13 02:59:06;;;;;;;18.30;11.45;;;-0.40;99.90;;;;;;5092215;28;20070;-63
2021/04/13 03:01:34;;;;;;;19.65;11.02;;;-0.40;99.90;;;;;;5091209;28;20377;-63
2021/04/13 03:04:06;;;;;;;17.17;11.07;;;-0.40;99.90;;;;;;5091768;28;20063;-65
2021/04/13 03:06:37;;;;;;;17.55;11.13;;;-0.30;99.90;;;;;;5090990;28;20073;-64
2021/04/13 03:09:03;;;;;;;15.23;9.68;;;-0.30;99.90;;;;;;5091949;28;20408;-63
2021/04/13 03:11:29;;;;;;;16.88;10.70;;;-0.30;99.90;;;;;;5091169;28;20063;-62
2021/04/13 03:13:58;;;;;;;16.95;9.88;;;-0.20;99.90;;;;;;5091803;28;20024;-64
2021/04/13 03:16:38;;;;;;;18.55;9.93;;;-0.10;99.90;;;;;;5091607;28;20055;-66
2021/04/13 03:19:09;;;;;;;13.55;9.70;;;-0.10;99.90;;;;;;5091675;28;20028;-63
2021/04/13 03:21:39;;;;;;;12.18;8.68;;;-0.10;99.90;;;;;;5091067;28;20062;-64
2021/04/13 03:24:10;;;;;;;13.27;9.05;;;0.00;99.90;;;;;;5091387;28;20095;-64
2021/04/13 03:26:42;;;;;;;;;;;0.00;99.90;;;;;;5091103;28;20111;-64
2021/04/13 03:29:15;;;;;;;13.63;8.65;;;0.00;99.90;;;;;;5091608;28;19953;-64
2021/04/13 03:31:41;;;;;;;13.35;8.93;;;0.10;99.90;;;;;;5091017;28;20028;-64
2021/04/13 03:34:07;;;;;;;16.90;8.98;;;0.00;99.90;;;;;;5091298;28;20469;-62
2021/04/13 03:36:34;;;;;;;16.08;9.93;;;0.00;99.90;;;;;;5090732;28;20039;-64
2021/04/13 03:39:08;;;;;;;16.45;8.90;;;-0.10;99.90;;;;;;5091560;28;20032;-63
2021/04/13 03:41:40;;;;;;;19.38;10.60;;;-0.10;99.90;;;;;;5090310;28;20373;-65
2021/04/13 03:44:06;;;;;;;18.35;10.35;;;-0.20;99.90;;;;;;5091392;28;20064;-64
2021/04/13 03:46:35;;;;;;;15.93;9.63;;;-0.30;99.90;;;;;;5090736;28;20028;-64
2021/04/13 03:49:03;;;;;;;18.30;10.25;;;-0.40;99.90;;;;;;5073165;28;20028;-62
2021/04/13 03:51:54;;;;;;;15.93;9.65;;;-0.40;99.90;;;;;;5090857;28;20040;-64
2021/04/13 03:54:33;;;;;;;15.60;9.77;;;-0.50;99.90;;;;;;5040763;28;20044;-63
2021/04/13 03:57:00;;;;;;;15.40;9.77;;;-0.60;99.90;;;;;;5091242;28;20688;-61
2021/04/13 03:59:30;;;;;;;14.35;9.80;;;-0.70;99.90;;;;;;5090653;28;20427;-66
2021/04/13 04:01:56;;;;;;;;;;;-0.70;99.90;;;;;;5091593;28;20493;-65
2021/04/13 04:04:29;;;;;;;14.57;9.52;;;-0.80;99.90;;;;;;5090995;28;19955;-62
2021/04/13 04:07:02;;;;;;;18.23;9.95;;;-0.90;99.90;;;;;;5091138;28;20035;-63
2021/04/13 04:09:28;;;;;;;15.95;10.30;;;-0.90;99.90;;;;;;5090413;28;20082;-66
2021/04/13 04:11:55;;;;;;;16.23;10.75;;;-1.00;99.90;;;;;;5091389;28;20059;-63
2021/04/13 04:14:24;;;;;;;20.95;11.15;;;-1.00;99.90;;;;;;5090804;28;20084;-64
2021/04/13 04:16:51;;;;;;;20.38;11.85;;;-1.10;99.90;;;;;;5090034;28;20044;-63
2021/04/13 04:19:18;;;;;;;23.58;12.35;;;-1.00;99.90;;;;;;5091127;28;20044;-64
2021/04/13 04:21:47;;;;;;;19.00;10.98;;;-1.10;99.90;;;;;;5090300;28;20032;-61
2021/04/13 04:24:26;;;;;;;18.45;11.77;;;-1.00;99.90;;;;;;5090783;28;20139;-64
2021/04/13 04:26:55;;;;;;;16.63;10.73;;;-1.00;99.90;;;;;;5090583;28;20040;-64
2021/04/13 04:29:35;;;;;;;16.58;10.85;;;-1.00;99.90;;;;;;5091363;28;20123;-63
2021/04/13 04:32:14;;;;;;;;;;;-0.90;99.90;;;;;;5091352;28;20393;-63
2021/04/13 04:34:40;;;;;;;17.92;10.98;;;-0.90;99.90;;;;;;5090039;28;20002;-65
2021/04/13 04:37:26;;;;;;;15.82;10.02;;;-0.80;99.90;;;;;;5091174;28;20477;-63
2021/04/13 04:40:11;;;;;;;17.67;11.07;;;-0.90;99.90;;;;;;5075544;28;20027;-64
2021/04/13 04:42:38;;;;;;;17.73;10.68;;;-0.80;99.90;;;;;;5093954;28;20035;-64
2021/04/13 04:45:17;;;;;;;14.82;9.40;;;-0.90;99.90;;;;;;5094729;28;20062;-63
2021/04/13 04:47:45;;;;;;;13.63;10.18;;;-0.90;99.90;;;;;;5093879;28;20076;-64
2021/04/13 04:50:14;;;;;;;19.83;11.07;;;-0.90;99.90;;;;;;5094253;28;20341;-64
2021/04/13 04:52:40;;;;;;;17.27;10.82;;;-0.90;99.90;;;;;;5076057;28;20035;-64
2021/04/13 04:55:07;;;;;;;17.27;10.80;;;-0.90;99.90;;;;;;5094382;28;20572;-63
2021/04/13 04:57:33;;;;;;;16.50;10.85;;;-0.90;99.90;;;;;;5093399;28;20397;-64
2021/04/13 04:59:58;;;;;;;16.77;10.30;;;-0.90;99.90;;;;;;5094063;28;20028;-65
2021/04/13 05:02:24;;;;;;;14.75;10.13;;;-0.90;99.90;;;;;;5093671;28;20028;-64
2021/04/13 05:04:50;;;;;;;19.02;9.90;;;-0.90;99.90;;;;;;5093617;28;20020;-64
2021/04/13 05:07:15;;;;;;;16.33;10.68;;;-0.90;99.90;;;;;;5093702;28;20423;-68
2021/04/13 05:09:41;;;;;;;16.23;10.20;;;-0.90;99.90;;;;;;5093752;28;20086;-67
2021/04/13 05:12:07;;;;;;;19.65;11.65;;;-0.90;99.90;;;;;;5094247;28;20106;-66
2021/04/13 05:14:33;;;;;;;15.60;11.23;;;-0.90;99.90;;;;;;5067024;28;20020;-66
2021/04/13 05:16:59;;;;;;;18.58;11.82;;;-0.90;99.90;;;;;;5094186;28;20044;-65
2021/04/13 05:19:25;;;;;;;21.02;11.07;;;-0.90;99.90;;;;;;5094212;28;20099;-65
2021/04/13 05:21:50;;;;;;;24.30;11.60;;;-0.80;99.90;;;;;;5093373;28;20804;-64
2021/04/13 05:24:16;;;;;;;24.33;12.10;;;-0.80;99.90;;;;;;5094469;28;20377;-62
2021/04/13 05:26:42;;;;;;;29.58;14.85;;;-0.70;99.90;;;;;;5093630;28;20381;-63
2021/04/13 05:29:08;;;;;;;20.73;11.82;;;-0.70;99.90;;;;;;5094205;28;20024;-62
2021/04/13 05:31:34;;;;;;;21.85;11.52;;;-0.60;99.90;;;;;;5093144;28;20032;-63
2021/04/13 05:34:00;;;;;;;18.15;11.32;;;-0.50;99.90;;;;;;5094005;28;20035;-62
2021/04/13 05:36:26;;;;;;;21.58;11.38;;;-0.40;99.90;;;;;;5092867;28;20024;-62
2021/04/13 05:38:53;;;;;;;18.67;10.25;;;-0.30;99.90;;;;;;5093283;28;21616;-62
2021/04/13 05:41:19;;;;;;;18.67;10.52;;;-0.10;99.90;;;;;;5094052;28;20389;-64
2021/04/13 05:43:45;;;;;;;16.50;10.45;;;0.00;99.90;;;;;;5093233;28;20028;-63
2021/04/13 05:46:20;;;;;;;16.83;10.52;;;0.10;99.90;;;;;;5094389;28;20031;-63
2021/04/13 05:48:46;;;;;;;19.33;9.75;;;0.20;99.90;;;;;;5092971;28;20024;-64
2021/04/13 05:51:12;;;;;;;16.33;10.27;;;0.30;99.90;;;;;;5093885;28;20476;-65
2021/04/13 05:53:37;;;;;;;18.23;10.18;;;0.40;99.90;;;;;;5092803;28;20060;-64
2021/04/13 05:56:03;;;;;;;14.52;9.90;;;0.50;99.90;;;;;;5093903;28;20032;-64
2021/04/13 05:58:42;;;;;;;15.43;10.00;;;0.70;99.90;;;;;;5093641;28;20036;-65
2021/04/13 06:01:09;;;;;;;14.30;9.30;;;0.80;99.90;;;;;;5093689;28;20042;-64
2021/04/13 06:03:36;;;;;;;16.58;9.25;;;0.90;99.90;;;;;;5091795;28;20205;-64
2021/04/13 06:06:02;;;;;;;30.77;13.95;;;1.10;99.90;;;;;;5093705;28;20028;-64
2021/04/13 06:08:28;;;;;;;21.08;10.77;;;1.30;99.90;;;;;;5094177;28;20058;-64
2021/04/13 06:10:56;;;;;;;16.48;9.65;;;1.50;99.90;;;;;;5092130;28;20376;-63
2021/04/13 06:13:23;;;;;;;17.27;9.60;;;1.50;99.90;;;;;;5093210;28;20047;-64
2021/04/13 06:15:50;;;;;;;15.10;8.90;;;1.60;99.90;;;;;;5092119;28;20120;-64
2021/04/13 06:18:16;;;;;;;18.05;9.55;;;1.60;99.90;;;;;;5093344;28;20055;-64
2021/04/13 06:20:42;;;;;;;12.40;9.43;;;1.60;99.90;;;;;;5091881;28;20064;-64
2021/04/13 06:23:07;;;;;;;14.85;9.25;;;1.70;99.90;;;;;;5092614;28;20032;-64
2021/04/13 06:25:34;;;;;;;13.13;8.55;;;1.80;99.20;;;;;;5092621;28;20085;-65
2021/04/13 06:28:00;;;;;;;11.15;8.30;;;1.90;96.90;;;;;;5092879;28;20043;-62
2021/04/13 06:30:27;;;;;;;12.23;8.90;;;2.00;97.20;;;;;;5092489;28;20055;-64
2021/04/13 06:32:53;;;;;;;12.48;9.07;;;2.10;95.50;;;;;;5091677;28;20488;-64
2021/04/13 06:35:20;;;;;;;16.63;9.30;;;2.30;94.20;;;;;;5091938;28;20032;-64
2021/04/13 06:37:48;;;;;;;14.15;8.93;;;2.40;92.50;;;;;;5091656;28;20032;-64
2021/04/13 06:40:49;;;;;;;13.15;9.30;;;2.60;92.40;;;;;;5092857;28;20032;-65
2021/04/13 06:43:33;;;;;;;13.32;8.35;;;2.70;91.30;;;;;;5092871;28;20028;-63
2021/04/13 06:46:55;;;;;;;21.02;8.93;;;3.00;91.20;;;;;;5091831;28;20089;-63
2021/04/13 06:49:30;;;;;;;15.43;8.35;;;3.30;88.60;;;;;;5010051;28;20412;-63
2021/04/13 06:52:11;;;;;;;18.65;8.95;;;3.60;86.10;;;;;;5009257;28;20037;-64
2021/04/13 06:54:50;;;;;;;11.48;8.20;;;3.80;84.80;;;;;;4992774;28;20487;-65
2021/04/13 06:57:33;;;;;;;12.93;9.40;;;3.90;85.20;;;;;;5010318;28;20157;-62
2021/04/13 07:00:13;;;;;;;16.08;9.98;;;4.20;82.20;;;;;;5009903;28;20125;-63
2021/04/13 07:02:45;;;;;;;13.93;8.77;;;4.40;81.80;;;;;;5008796;28;20038;-65
2021/04/13 07:05:40;;;;;;;13.45;9.80;;;4.60;77.60;;;;;;4994436;28;20074;-64
2021/04/13 07:08:22;;;;;;;13.02;8.85;;;4.50;78.70;;;;;;4990243;28;20495;-63
2021/04/13 07:10:54;;;;;;;17.17;9.60;;;4.40;79.60;;;;;;4973362;28;20442;-60
2021/04/13 07:13:31;;;;;;;11.82;9.40;;;4.40;79.40;;;;;;4990407;28;20042;-63
2021/04/13 07:16:10;;;;;;;18.30;10.38;;;4.30;80.10;;;;;;4989246;28;20141;-63
2021/04/13 07:18:47;;;;;;;14.75;10.02;;;4.30;79.30;;;;;;4989571;28;20034;-64
2021/04/13 07:21:25;;;;;;;15.10;10.27;;;4.40;77.40;;;;;;5050577;28;20040;-63
2021/04/13 07:23:56;;;;;;;14.98;10.27;;;4.60;76.70;;;;;;5070746;28;20385;-64
2021/04/13 07:26:36;;;;;;;14.13;10.10;;;4.80;76.90;;;;;;5071814;28;20035;-63
2021/04/13 07:29:48;;;;;;;14.70;9.82;;;5.10;74.30;;;;;;5071898;28;20024;-63
2021/04/13 07:32:20;;;;;;;10.32;9.07;;;5.30;73.80;;;;;;5069419;28;20082;-64
2021/04/13 07:34:52;;;;;;;13.77;9.90;;;5.40;73.90;;;;;;5083735;28;20028;-64
2021/04/13 07:37:35;;;;;;;14.95;10.45;;;5.60;72.10;;;;;;5091783;28;20039;-63
2021/04/13 07:40:09;;;;;;;15.63;10.98;;;5.70;71.30;;;;;;5091263;28;20031;-61
2021/04/13 07:42:38;;;;;;;13.65;10.07;;;5.80;70.60;;;;;;5091388;28;20461;-65
2021/04/13 07:45:22;;;;;;;11.57;10.18;;;5.80;70.30;;;;;;5091816;28;20085;-61
2021/04/13 07:48:09;;;;;;;12.25;10.05;;;5.90;69.70;;;;;;5088907;28;20028;-62
2021/04/13 07:50:44;;;;;;;22.70;11.60;;;5.80;70.30;;;;;;5091684;28;20508;-65
2021/04/13 07:53:33;;;;;;;14.82;9.77;;;5.90;71.00;;;;;;5091877;28;20071;-64
2021/04/13 07:56:51;;;;;;;25.50;12.05;;;6.00;71.20;;;;;;5091028;28;20382;-63
2021/04/13 07:59:41;;;;;;;24.70;11.20;;;6.20;72.60;;;;;;5073780;28;20055;-63
2021/04/13 08:02:07;;;;;;;11.88;9.65;;;6.30;71.30;;;;;;5090171;28;20126;-63
2021/04/13 08:04:34;;;;;;;17.65;10.27;;;6.40;70.70;;;;;;5091199;28;20038;-64
2021/04/13 08:07:23;;;;;;;15.70;10.52;;;6.30;70.60;;;;;;5090543;28;20043;-63
2021/04/13 08:09:55;;;;;;;15.17;11.03;;;6.40;69.90;;;;;;5090439;28;20052;-64
2021/04/13 08:12:26;;;;;;;12.13;7.57;;;6.20;70.80;;;;;;5092181;28;20485;-63
2021/04/13 08:14:54;;;;;;;16.15;9.98;;;6.10;69.00;;;;;;5094963;28;20024;-62
2021/04/13 08:17:26;;;;;;;15.57;11.02;;;5.80;72.30;;;;;;5095169;28;20075;-62
2021/04/13 08:20:08;;;;;;;15.73;11.55;;;5.70;74.70;;;;;;5076486;28;20421;-64
2021/04/13 08:23:23;;;;;;;14.48;9.70;;;5.40;78.10;;;;;;5077165;28;20453;-64
2021/04/13 08:25:54;;;;;;;17.75;11.95;;;5.20;76.30;;;;;;4995094;28;20057;-64
2021/04/13 08:28:35;;;;;;;18.50;12.38;;;5.10;75.50;;;;;;5088879;28;20118;-63
2021/04/13 08:34:18;;;;;;;27.08;12.98;;;4.90;76.60;;;;;;5083405;28;20031;-64
2021/04/13 08:37:06;;;;;;;21.17;12.30;;;4.80;77.50;;;;;;5095297;28;20032;-64
2021/04/13 08:40:06;;;;;;;17.33;11.43;;;4.90;76.70;;;;;;5084311;28;20492;-63
2021/04/13 08:43:11;;;;;;;18.45;11.63;;;5.00;75.20;;;;;;5076777;28;20078;-64
2021/04/13 08:45:40;;;;;;;13.60;11.13;;;5.30;74.10;;;;;;5094397;28;20058;-64
2021/04/13 08:48:17;;;;;;;15.45;10.13;;;5.70;71.70;;;;;;5094341;28;20024;-64
2021/04/13 08:50:48;;;;;;;12.77;10.27;;;5.80;70.90;;;;;;5094038;28;20427;-64
2021/04/13 08:53:36;;;;;;;16.52;11.02;;;5.80;71.60;;;;;;5095043;28;20376;-64
2021/04/13 08:56:17;;;;;;;18.80;11.57;;;5.90;69.40;;;;;;5094102;28;20051;-64
2021/04/13 08:58:49;;;;;;;12.57;9.57;;;5.80;70.70;;;;;;5092573;28;20029;-65
2021/04/13 09:01:26;;;;;;;10.27;7.93;;;5.80;70.30;;;;;;5094953;28;20629;-63
2021/04/13 09:03:52;;;;;;;12.30;8.55;;;5.80;68.20;;;;;;5080020;28;20043;-64
2021/04/13 09:06:31;;;;;;;24.30;9.82;;;5.80;67.40;;;;;;5074075;28;20048;-64
2021/04/13 09:09:11;;;;;;;12.38;8.10;;;5.80;67.00;;;;;;5055913;28;20028;-64
2021/04/13 09:12:03;;;;;;;12.10;7.45;;;5.90;66.70;;;;;;5074112;28;20032;-64
2021/04/13 09:14:54;;;;;;;8.30;6.80;;;5.80;65.30;;;;;;5074420;28;20072;-64
2021/04/13 09:17:20;;;;;;;;;;;5.90;64.50;;;;;;5074525;28;20044;-64
2021/04/13 09:20:12;;;;;;;7.97;6.47;;;6.00;64.80;;;;;;5055525;28;19957;-62
2021/04/13 09:23:05;;;;;;;8.98;7.13;;;6.10;62.90;;;;;;5056062;28;20393;-64
2021/04/13 09:25:33;;;;;;;22.33;9.32;;;6.30;60.80;;;;;;5073570;28;20040;-62
2021/04/13 09:28:09;;;;;;;21.25;10.48;;;6.40;60.90;;;;;;5072880;28;20112;-63
2021/04/13 09:30:42;;;;;;;8.32;7.03;;;6.60;60.90;;;;;;5074025;28;20035;-64
2021/04/13 09:33:27;;;;;;;28.63;10.48;;;6.90;60.20;;;;;;5073386;28;20025;-63
2021/04/13 09:35:59;;;;;;;26.08;9.10;;;7.20;60.00;;;;;;5072107;28;20074;-62
2021/04/13 09:38:50;;;;;;;10.23;6.68;;;7.40;59.30;;;;;;5055857;28;20342;-63
2021/04/13 09:41:35;;;;;;;8.85;7.13;;;7.30;56.60;;;;;;5073457;28;20043;-62
2021/04/13 09:44:28;;;;;;;18.63;8.80;;;7.10;57.00;;;;;;5072624;28;20034;-59
2021/04/13 09:47:02;;;;;;;11.07;8.20;;;7.00;58.00;;;;;;5072870;28;20031;-63
2021/04/13 09:49:33;;;;;;;13.63;9.45;;;6.80;59.80;;;;;;5073317;28;20059;-62
2021/04/13 09:52:17;;;;;;;11.80;8.50;;;6.80;59.60;;;;;;5072523;28;20024;-62
2021/04/13 09:54:47;;;;;;;10.23;8.43;;;6.90;60.20;;;;;;5083596;28;20028;-63
2021/04/13 09:57:50;;;;;;;9.40;7.22;;;7.20;60.30;;;;;;5094134;28;20069;-63
2021/04/13 10:00:48;;;;;;;11.77;8.32;;;7.50;58.10;;;;;;5093963;28;20047;-63
2021/04/13 10:03:23;;;;;;;10.85;8.10;;;7.70;57.60;;;;;;5093382;28;20036;-63
2021/04/13 10:05:49;;;;;;;8.93;6.93;;;8.00;57.80;;;;;;5074701;28;20059;-60
2021/04/13 10:08:15;;;;;;;9.55;8.27;;;8.20;54.10;;;;;;5093544;28;20369;-61
2021/04/13 10:11:01;;;;;;;11.52;7.43;;;8.30;55.80;;;;;;5092781;28;20024;-62
2021/04/13 10:13:26;;;;;;;12.70;7.25;;;8.40;53.80;;;;;;5093487;28;20036;-63
2021/04/13 10:16:36;;;;;;;9.52;7.45;;;8.40;54.00;;;;;;5092327;28;20031;-63
2021/04/13 10:19:15;;;;;;;8.85;7.25;;;8.40;54.00;;;;;;5092674;28;20024;-63
2021/04/13 10:22:02;;;;;;;8.38;7.47;;;8.40;54.30;;;;;;5093577;28;20028;-62
2021/04/13 10:24:40;;;;;;;11.35;7.55;;;8.10;54.50;;;;;;5093120;28;20040;-63
2021/04/13 10:27:50;;;;;;;12.45;7.85;;;8.00;56.30;;;;;;5092317;28;20020;-63
2021/04/13 10:30:30;;;;;;;8.52;7.45;;;7.90;56.50;;;;;;5048072;28;20040;-63
2021/04/13 10:32:56;;;;;;;;;;;7.70;55.00;;;;;;5092704;28;20024;-63
2021/04/13 10:35:43;;;;;;;12.48;6.95;;;7.50;56.10;;;;;;5091920;28;19904;-62
2021/04/13 10:38:30;;;;;;;11.93;7.25;;;7.40;54.50;;;;;;5091903;28;20024;-63
2021/04/13 10:41:14;;;;;;;15.27;7.55;;;7.30;54.70;;;;;;5092092;28;20085;-63
2021/04/13 10:44:01;;;;;;;10.20;7.07;;;7.30;55.60;;;;;;5092795;28;20032;-63
2021/04/13 10:46:49;;;;;;;7.95;6.47;;;7.50;55.50;;;;;;5093074;28;20028;-63
2021/04/13 10:49:53;;;;;;;7.50;5.65;;;7.90;53.10;;;;;;5092891;28;20081;-63
2021/04/13 10:52:46;;;;;;;10.27;6.40;;;8.40;53.50;;;;;;5082987;28;20393;-63
2021/04/13 10:55:36;;;;;;;8.20;6.45;;;9.00;52.30;;;;;;5092070;28;20032;-63
2021/04/13 10:58:47;;;;;;;10.68;6.88;;;9.30;50.30;;;;;;5088300;28;20356;-64
2021/04/13 11:01:49;;;;;;;7.43;5.85;;;9.10;49.00;;;;;;5088570;28;20028;-63
2021/04/13 11:04:59;;;;;;;10.77;6.35;;;8.50;50.30;;;;;;5088990;28;20124;-64
2021/04/13 11:08:02;;;;;;;7.78;5.65;;;8.10;51.60;;;;;;5089435;28;20039;-64
2021/04/13 11:10:36;;;;;;;9.00;6.22;;;7.90;52.90;;;;;;5087698;28;20115;-63
2021/04/13 11:13:32;;;;;;;8.57;6.45;;;8.00;51.10;;;;;;5088288;28;20036;-63
2021/04/13 11:16:35;;;;;;;8.25;6.45;;;8.10;51.80;;;;;;5087905;28;20047;-63
2021/04/13 11:19:19;;;;;;;7.68;5.90;;;8.40;50.60;;;;;;5087832;28;20035;-63
2021/04/13 11:22:06;;;;;;;6.85;5.82;;;8.80;48.90;;;;;;5088748;28;20020;-63
2021/04/13 11:24:43;;;;;;;8.55;5.13;;;9.00;48.60;;;;;;5089123;28;20028;-64
2021/04/13 11:27:53;;;;;;;12.77;4.93;;;9.10;44.50;;;;;;5088213;28;20032;-65
2021/04/13 11:31:12;;;;;;;7.93;4.75;;;9.40;44.30;;;;;;5068623;28;20044;-64
2021/04/13 11:34:08;;;;;;;7.95;5.00;;;9.30;43.60;;;;;;5045356;28;20482;-64
2021/04/13 11:37:15;;;;;;;5.78;4.45;;;9.80;44.90;;;;;;5068068;28;20049;-63
2021/04/13 11:40:17;;;;;;;5.40;4.78;;;10.00;42.30;;;;;;5066973;28;20041;-64
2021/04/13 11:42:43;;;;;;;5.80;4.53;;;10.50;41.90;;;;;;5067186;28;20386;-64
2021/04/13 11:45:35;;;;;;;6.28;5.28;;;10.80;41.30;;;;;;5065825;28;20028;-62
2021/04/13 11:48:13;;;;;;;8.90;4.95;;;11.00;39.70;;;;;;5067449;28;20033;-66
2021/04/13 11:50:56;;;;;;;5.78;4.70;;;11.40;40.00;;;;;;5067764;28;20025;-64
2021/04/13 11:53:33;;;;;;;6.32;4.55;;;11.80;38.10;;;;;;5068192;28;20029;-67
2021/04/13 11:56:00;;;;;;;5.68;4.60;;;12.10;38.50;;;;;;5066955;28;20039;-66
2021/04/13 11:58:33;;;;;;;7.07;5.15;;;12.40;37.80;;;;;;5068669;28;20021;-69
2021/04/13 12:01:15;;;;;;;8.52;4.82;;;12.20;38.00;;;;;;5067509;28;20033;-69
2021/04/13 12:04:10;;;;;;;7.72;5.07;;;12.20;38.00;;;;;;5071993;28;20024;-69
2021/04/13 12:06:56;;;;;;;8.55;4.20;;;12.10;40.50;;;;;;5087278;28;20029;-68
2021/04/13 12:09:49;;;;;;;6.18;3.97;;;11.50;39.20;;;;;;5074283;28;20369;-67
2021/04/13 12:12:30;;;;;;;4.93;4.20;;;10.70;39.60;;;;;;5074653;28;20032;-68
2021/04/13 12:14:57;;;;;;;7.63;4.70;;;9.70;40.40;;;;;;5073777;28;20472;-69
2021/04/13 12:17:40;;;;;;;5.80;4.55;;;9.20;44.90;;;;;;5074951;28;20028;-68
2021/04/13 12:20:33;;;;;;;6.28;5.00;;;8.80;48.20;;;;;;5073906;28;20033;-69
2021/04/13 12:22:58;;;;;;;8.48;4.78;;;8.60;46.30;;;;;;5073954;28;20028;-69
2021/04/13 12:25:53;;;;;;;6.35;4.32;;;8.40;47.00;;;;;;5074162;28;20029;-68
2021/04/13 12:28:33;;;;;;;4.63;3.90;;;8.50;48.20;;;;;;5074861;28;20036;-68
2021/04/13 12:31:05;;;;;;;5.05;3.20;;;9.20;41.50;;;;;;5073707;28;20108;-68
2021/04/13 12:33:30;;;;;;;4.72;3.15;;;9.00;39.80;;;;;;5074113;28;20402;-69
2021/04/13 12:36:03;;;;;;;3.30;2.90;;;9.20;42.00;;;;;;5073551;28;20073;-68
2021/04/13 12:38:45;;;;;;;4.30;2.92;;;9.30;40.60;;;;;;5074523;28;20028;-68
2021/04/13 12:41:25;;;;;;;3.88;2.90;;;8.90;38.60;;;;;;5073584;28;20089;-67
2021/04/13 12:44:01;;;;;;;;;;;8.60;39.50;;;;;;5074330;28;20047;-71
2021/04/13 12:46:35;;;;;;;6.35;2.80;;;8.40;38.30;;;;;;5065368;28;19927;-68
2021/04/13 12:49:05;;;;;;;3.10;2.65;;;8.40;37.60;;;;;;5053410;28;20055;-67
2021/04/13 12:51:49;;;;;;;4.07;2.60;;;8.70;39.30;;;;;;5054053;28;20525;-68
2021/04/13 12:54:15;;;;;;;4.43;2.35;;;9.20;39.00;;;;;;5052662;28;20116;-68
2021/04/13 12:56:48;;;;;;;3.85;2.58;;;9.70;36.60;;;;;;5052440;28;20152;-68
2021/04/13 12:59:17;;;;;;;2.65;2.45;;;10.30;38.90;;;;;;5053496;28;20036;-68
2021/04/13 13:01:46;;;;;;;2.80;2.50;;;11.00;37.20;;;;;;5053505;28;20024;-69
2021/04/13 13:04:31;;;;;;;3.38;2.63;;;11.80;34.20;;;;;;5053278;28;20031;-68
2021/04/13 13:06:58;;;;;;;3.70;2.85;;;12.40;33.50;;;;;;5053092;28;20486;-68
2021/04/13 13:09:33;;;;;;;4.30;3.15;;;13.00;33.70;;;;;;5057658;28;20039;-69
2021/04/13 13:12:00;;;;;;;3.65;3.00;;;13.40;35.30;;;;;;5073189;28;20024;-68
2021/04/13 13:14:29;;;;;;;3.45;2.90;;;13.50;34.30;;;;;;5074042;28;20025;-70
2021/04/13 13:16:56;;;;;;;3.70;3.33;;;12.80;34.80;;;;;;5072956;28;20032;-69
2021/04/13 13:19:35;;;;;;;5.07;3.55;;;11.70;37.40;;;;;;5072768;28;20016;-69
2021/04/13 13:22:11;;;;;;;5.00;3.30;;;10.70;40.60;;;;;;5072834;28;20024;-67
2021/04/13 13:24:36;;;;;;;4.63;3.60;;;9.80;43.50;;;;;;5073610;28;20025;-67
2021/04/13 13:27:27;;;;;;;4.97;3.90;;;9.50;45.40;;;;;;5072632;28;20039;-68
2021/04/13 13:29:52;;;;;;;5.38;4.00;;;9.20;45.80;;;;;;5073277;28;20111;-71
2021/04/13 13:32:21;;;;;;;6.35;3.58;;;9.00;47.00;;;;;;5073095;28;20509;-67
2021/04/13 13:34:52;;;;;;;8.52;4.32;;;9.00;46.60;;;;;;5072817;28;20021;-69
2021/04/13 13:37:34;;;;;;;5.32;3.65;;;8.80;46.00;;;;;;5072588;28;20140;-69